Time;durP1;ratioP1;P1;durP2;ratioP2;P2;SDS_P1;SDS_P2;PMS_P1;PMS_P2;Temp;Humidity;BMP_temperature;BMP_pressure;BME280_temperature;BME280_humidity;BME280_pressure;Samples;Min_cycle;Max_cycle;Signal;HPM_P1;HPM_P2
2023/09/03 00:01:43;;;;;;;0.00;0.00;;;14.30;99.90;;;;;;5037853;28;20061;-67
2023/09/03 00:04:09;;;;;;;0.55;0.55;;;14.30;99.90;;;;;;5038866;28;20041;-67
2023/09/03 00:06:34;;;;;;;0.20;0.20;;;14.30;99.90;;;;;;5037126;28;20099;-67
2023/09/03 00:09:00;;;;;;;1.10;0.50;;;14.20;99.90;;;;;;5042156;28;20021;-67
2023/09/03 00:11:26;;;;;;;0.30;0.30;;;14.20;99.90;;;;;;5040316;28;20025;-67
2023/09/03 00:13:51;;;;;;;1.33;0.40;;;14.20;99.90;;;;;;5041642;28;20025;-67
2023/09/03 00:16:17;;;;;;;0.40;0.40;;;14.20;99.90;;;;;;5046855;28;20442;-67
2023/09/03 00:18:43;;;;;;;0.63;0.63;;;14.10;99.90;;;;;;5041095;28;20044;-67
2023/09/03 00:21:08;;;;;;;0.30;0.30;;;14.20;99.90;;;;;;5034152;28;20025;-67
2023/09/03 00:23:34;;;;;;;14.93;0.70;;;14.20;99.90;;;;;;5041441;28;20617;-67
2023/09/03 00:26:01;;;;;;;0.47;0.47;;;14.30;99.90;;;;;;5035852;28;20056;-67
2023/09/03 00:28:27;;;;;;;0.68;0.68;;;14.30;99.90;;;;;;5039091;28;20306;-67
2023/09/03 00:31:04;;;;;;;0.20;0.20;;;14.20;99.90;;;;;;5041552;28;20029;-67
2023/09/03 00:33:30;;;;;;;1.15;0.77;;;14.20;99.90;;;;;;5029785;28;20443;-67
2023/09/03 00:35:56;;;;;;;;;;;14.40;99.90;;;;;;5033645;28;20090;-67
2023/09/03 00:38:22;;;;;;;2.65;0.52;;;14.40;99.90;;;;;;5036404;28;20367;-67
2023/09/03 00:40:48;;;;;;;1.67;1.47;;;14.50;99.90;;;;;;5034732;28;20124;-67
2023/09/03 00:43:13;;;;;;;1.70;1.20;;;14.60;99.90;;;;;;5029997;28;20033;-67
2023/09/03 00:45:42;;;;;;;0.63;0.63;;;14.70;99.90;;;;;;5033619;28;20041;-67
2023/09/03 00:48:09;;;;;;;0.75;0.75;;;14.70;99.90;;;;;;5034904;28;20033;-67
2023/09/03 00:50:37;;;;;;;1.08;0.25;;;14.70;99.90;;;;;;5035571;28;20583;-67
2023/09/03 00:53:06;;;;;;;0.17;0.17;;;14.60;99.90;;;;;;5033175;28;20018;-67
2023/09/03 00:55:32;;;;;;;0.43;0.35;;;14.50;99.90;;;;;;5030058;28;20026;-66
2023/09/03 00:57:59;;;;;;;1.17;0.95;;;14.30;99.90;;;;;;5036591;28;20089;-66
2023/09/03 01:00:25;;;;;;;1.75;1.10;;;14.20;99.90;;;;;;5042044;28;20029;-67
2023/09/03 01:02:54;;;;;;;0.52;0.52;;;14.20;99.90;;;;;;5033239;28;20079;-67
2023/09/03 01:05:20;;;;;;;1.10;0.40;;;14.10;99.90;;;;;;5047809;28;20040;-66
2023/09/03 01:07:48;;;;;;;0.10;0.10;;;14.10;99.90;;;;;;5036707;28;20074;-76
2023/09/03 01:10:15;;;;;;;0.20;0.20;;;14.00;99.90;;;;;;5034392;28;20022;-67
2023/09/03 01:12:59;;;;;;;;;;;14.00;99.90;;;;;;5034231;28;20014;-67
2023/09/03 01:15:38;;;;;;;0.35;0.20;;;14.00;99.90;;;;;;5034227;28;19940;-67
2023/09/03 01:18:33;;;;;;;0.43;0.30;;;13.80;99.90;;;;;;5037014;28;20067;-67
2023/09/03 01:21:11;;;;;;;0.30;0.30;;;13.70;99.90;;;;;;5051501;28;20045;-67
2023/09/03 01:23:44;;;;;;;0.80;0.63;;;13.70;99.90;;;;;;5052656;28;20108;-67
2023/09/03 01:26:34;;;;;;;0.50;0.43;;;13.80;99.90;;;;;;5052069;28;20051;-67
2023/09/03 01:29:00;;;;;;;0.40;0.40;;;13.90;99.90;;;;;;5053489;28;20044;-67
2023/09/03 01:31:26;;;;;;;2.17;1.10;;;14.10;99.90;;;;;;5052738;28;20037;-66
2023/09/03 01:34:01;;;;;;;17.63;0.82;;;14.20;99.90;;;;;;5052603;28;20021;-67
2023/09/03 01:36:30;;;;;;;2.15;1.45;;;14.20;99.90;;;;;;5046433;28;20059;-67
2023/09/03 01:38:59;;;;;;;0.65;0.65;;;14.30;99.90;;;;;;5056910;28;20136;-67
2023/09/03 01:41:25;;;;;;;0.55;0.55;;;14.20;99.90;;;;;;5047906;28;20032;-67
2023/09/03 01:43:51;;;;;;;0.00;0.00;;;14.10;99.90;;;;;;5059146;28;20178;-67
2023/09/03 01:46:24;;;;;;;0.20;0.20;;;13.90;99.90;;;;;;5065821;28;20020;-67
2023/09/03 01:49:29;;;;;;;0.30;0.30;;;13.80;99.90;;;;;;5055698;28;20025;-67
2023/09/03 01:52:12;;;;;;;0.77;0.77;;;13.60;99.90;;;;;;5052782;28;21313;-67
2023/09/03 01:54:48;;;;;;;0.40;0.40;;;13.70;99.90;;;;;;5050969;28;20029;-67
2023/09/03 01:57:27;;;;;;;0.88;0.82;;;13.80;99.90;;;;;;5043448;28;20031;-67
2023/09/03 01:59:56;;;;;;;1.48;0.90;;;13.90;99.90;;;;;;5029526;28;20034;-67
2023/09/03 02:02:24;;;;;;;1.02;0.80;;;14.00;99.90;;;;;;5032831;28;20070;-67
2023/09/03 02:04:50;;;;;;;1.60;1.38;;;14.10;99.90;;;;;;5034296;28;20167;-67
2023/09/03 02:07:16;;;;;;;1.92;0.75;;;14.10;99.90;;;;;;5034530;28;20028;-67
2023/09/03 02:09:42;;;;;;;0.70;0.60;;;14.10;99.90;;;;;;5032608;28;20030;-66
2023/09/03 02:12:09;;;;;;;0.30;0.30;;;14.10;99.90;;;;;;5033374;28;20034;-67
2023/09/03 02:14:34;;;;;;;1.42;0.68;;;14.00;99.90;;;;;;5041888;28;20022;-67
2023/09/03 02:17:00;;;;;;;0.70;0.70;;;13.90;99.90;;;;;;5034637;28;20021;-67
2023/09/03 02:19:26;;;;;;;0.37;0.37;;;13.90;99.90;;;;;;5047750;28;20095;-66
2023/09/03 02:21:52;;;;;;;2.10;0.67;;;13.80;99.90;;;;;;5034411;28;20083;-67
2023/09/03 02:24:18;;;;;;;0.13;0.13;;;13.80;99.90;;;;;;5034422;28;20022;-67
2023/09/03 02:26:45;;;;;;;2.45;0.50;;;13.60;99.90;;;;;;5033195;28;20073;-67
2023/09/03 02:29:12;;;;;;;0.38;0.38;;;13.50;99.90;;;;;;5034172;28;20057;-66
2023/09/03 02:31:38;;;;;;;0.30;0.30;;;13.40;99.90;;;;;;5033825;28;20025;-67
2023/09/03 02:34:05;;;;;;;0.38;0.38;;;13.40;99.90;;;;;;5030168;28;20084;-67
2023/09/03 02:36:33;;;;;;;1.75;0.25;;;13.30;99.90;;;;;;5027929;28;20024;-67
2023/09/03 02:39:00;;;;;;;1.65;0.75;;;13.50;99.90;;;;;;5032717;28;20033;-67
2023/09/03 02:41:26;;;;;;;0.22;0.22;;;13.60;99.90;;;;;;5033726;28;20025;-67
2023/09/03 02:43:52;;;;;;;2.03;0.47;;;13.70;99.90;;;;;;5030919;28;20104;-67
2023/09/03 02:46:18;;;;;;;0.60;0.60;;;13.70;99.90;;;;;;5036454;28;20424;-67
2023/09/03 02:48:44;;;;;;;0.30;0.30;;;13.60;99.90;;;;;;5033905;28;20026;-67
2023/09/03 02:51:09;;;;;;;3.50;0.47;;;13.60;99.90;;;;;;5030935;28;20026;-67
2023/09/03 02:53:35;;;;;;;1.03;0.57;;;13.70;99.90;;;;;;5032835;28;20022;-67
2023/09/03 02:56:01;;;;;;;1.70;0.77;;;13.70;99.90;;;;;;5032213;28;20155;-67
2023/09/03 02:58:26;;;;;;;0.20;0.20;;;13.60;99.90;;;;;;5038262;28;20080;-67
2023/09/03 03:00:52;;;;;;;1.70;0.97;;;13.60;99.90;;;;;;5032491;28;20026;-71
2023/09/03 03:03:18;;;;;;;1.50;0.70;;;13.50;99.90;;;;;;5030945;28;20377;-67
2023/09/03 03:05:43;;;;;;;0.47;0.47;;;13.40;99.90;;;;;;5038045;28;20021;-67
2023/09/03 03:08:09;;;;;;;0.20;0.20;;;13.40;99.90;;;;;;5042910;28;20054;-67
2023/09/03 03:10:35;;;;;;;0.63;0.63;;;13.40;99.90;;;;;;5032302;28;20037;-66
2023/09/03 03:13:00;;;;;;;1.30;1.20;;;13.40;99.90;;;;;;5041342;28;20028;-66
2023/09/03 03:15:27;;;;;;;1.10;0.73;;;13.40;99.90;;;;;;5036268;28;20040;-67
2023/09/03 03:17:52;;;;;;;0.52;0.43;;;13.40;99.90;;;;;;5039276;28;20112;-66
2023/09/03 03:20:20;;;;;;;0.27;0.27;;;13.30;99.90;;;;;;5033523;28;20116;-67
2023/09/03 03:22:45;;;;;;;1.08;0.57;;;13.30;99.90;;;;;;5041928;28;20026;-67
2023/09/03 03:25:11;;;;;;;1.20;0.87;;;13.20;99.90;;;;;;5030681;28;20060;-67
2023/09/03 03:27:37;;;;;;;2.53;1.17;;;13.20;99.90;;;;;;5027776;28;20033;-76
2023/09/03 03:30:05;;;;;;;3.80;1.40;;;13.20;99.90;;;;;;5019404;28;20018;-67
2023/09/03 03:32:30;;;;;;;0.93;0.93;;;13.30;99.90;;;;;;5030132;28;20064;-66
2023/09/03 03:34:56;;;;;;;2.83;0.27;;;13.40;99.90;;;;;;5033075;28;20049;-75
2023/09/03 03:37:22;;;;;;;0.20;0.20;;;13.50;99.90;;;;;;5027653;28;20033;-67
2023/09/03 03:39:51;;;;;;;8.20;1.73;;;13.50;99.90;;;;;;5030932;28;20519;-66
2023/09/03 03:42:16;;;;;;;0.20;0.20;;;13.50;99.90;;;;;;5029225;28;20018;-66
2023/09/03 03:44:42;;;;;;;0.20;0.20;;;13.50;99.90;;;;;;5034158;28;20033;-66
2023/09/03 03:47:08;;;;;;;0.50;0.40;;;13.40;99.90;;;;;;5036926;28;20116;-67
2023/09/03 03:49:34;;;;;;;4.50;0.47;;;13.40;99.90;;;;;;5028117;28;20042;-66
2023/09/03 03:51:59;;;;;;;0.40;0.33;;;13.40;99.90;;;;;;5030237;28;20036;-66
2023/09/03 03:54:25;;;;;;;1.13;0.67;;;13.30;99.90;;;;;;5033869;28;20428;-66
2023/09/03 03:56:51;;;;;;;2.75;0.75;;;13.30;99.90;;;;;;5026420;28;20030;-67
2023/09/03 03:59:17;;;;;;;0.83;0.20;;;13.30;99.90;;;;;;5041549;28;20028;-67
2023/09/03 04:01:44;;;;;;;4.30;0.63;;;13.20;99.90;;;;;;5030645;28;20324;-67
2023/09/03 04:04:09;;;;;;;;;;;13.20;99.90;;;;;;5044769;28;20584;-66
2023/09/03 04:06:35;;;;;;;0.73;0.73;;;13.30;99.90;;;;;;5038455;28;19968;-66
2023/09/03 04:09:01;;;;;;;0.20;0.20;;;13.30;99.90;;;;;;5041924;28;20033;-66
2023/09/03 04:11:26;;;;;;;0.67;0.67;;;13.30;99.90;;;;;;5038125;28;20021;-76
2023/09/03 04:13:52;;;;;;;0.50;0.50;;;13.30;99.90;;;;;;5024353;28;20049;-66
2023/09/03 04:16:20;;;;;;;0.20;0.20;;;13.20;99.90;;;;;;5035804;28;20434;-66
2023/09/03 04:18:46;;;;;;;2.72;1.45;;;13.20;99.90;;;;;;5032853;28;20029;-67
2023/09/03 04:21:12;;;;;;;0.77;0.77;;;13.10;99.90;;;;;;5045729;28;20422;-66
2023/09/03 04:23:38;;;;;;;1.50;1.40;;;13.10;99.90;;;;;;5039046;28;20038;-66
2023/09/03 04:26:04;;;;;;;0.15;0.15;;;13.20;99.90;;;;;;5042795;28;20270;-67
2023/09/03 04:28:30;;;;;;;0.10;0.10;;;13.20;99.90;;;;;;5023302;28;20037;-66
2023/09/03 04:31:00;;;;;;;0.60;0.60;;;13.10;99.90;;;;;;5030895;28;20038;-67
2023/09/03 04:33:26;;;;;;;0.52;0.30;;;13.10;99.90;;;;;;5034890;28;20025;-66
2023/09/03 04:35:57;;;;;;;0.45;0.45;;;13.20;99.90;;;;;;5024542;28;20029;-66
2023/09/03 04:38:24;;;;;;;0.10;0.10;;;13.20;99.90;;;;;;5042295;28;20424;-66
2023/09/03 04:40:49;;;;;;;0.10;0.10;;;13.20;99.90;;;;;;5031141;28;20095;-66
2023/09/03 04:43:15;;;;;;;2.63;0.30;;;13.10;99.90;;;;;;5040964;28;20037;-66
2023/09/03 04:45:47;;;;;;;0.30;0.30;;;13.20;99.90;;;;;;5037674;28;20033;-66
2023/09/03 04:48:13;;;;;;;0.10;0.10;;;13.40;99.90;;;;;;5027275;28;20017;-66
2023/09/03 04:50:39;;;;;;;0.00;0.00;;;13.50;99.90;;;;;;5031502;28;20025;-66
2023/09/03 04:53:05;;;;;;;0.30;0.30;;;13.40;99.90;;;;;;5043551;28;20029;-66
2023/09/03 04:55:34;;;;;;;0.20;0.20;;;13.30;99.90;;;;;;5038040;28;20029;-66
2023/09/03 04:58:00;;;;;;;0.45;0.45;;;13.30;99.90;;;;;;5023240;28;20116;-66
2023/09/03 05:00:27;;;;;;;0.10;0.10;;;13.30;99.90;;;;;;5033019;28;20108;-66
2023/09/03 05:02:52;;;;;;;0.20;0.20;;;13.30;99.90;;;;;;5033447;28;20034;-66
2023/09/03 05:05:18;;;;;;;0.10;0.10;;;13.40;99.90;;;;;;5026226;28;20041;-66
2023/09/03 05:07:46;;;;;;;0.30;0.30;;;13.40;99.90;;;;;;5035007;28;20470;-66
2023/09/03 05:10:12;;;;;;;0.40;0.40;;;13.40;99.90;;;;;;5033800;28;20071;-67
2023/09/03 05:12:40;;;;;;;0.10;0.10;;;13.40;99.90;;;;;;5026544;28;20325;-67
2023/09/03 05:15:11;;;;;;;0.10;0.10;;;13.40;99.90;;;;;;5023930;28;20101;-66
2023/09/03 05:17:37;;;;;;;0.00;0.00;;;13.40;99.90;;;;;;5031028;28;20167;-75
2023/09/03 05:20:03;;;;;;;0.52;0.30;;;13.40;99.90;;;;;;5029051;28;20353;-66
2023/09/03 05:22:29;;;;;;;0.03;0.03;;;13.40;99.90;;;;;;5034419;28;20041;-66
2023/09/03 05:24:55;;;;;;;0.00;0.00;;;13.30;99.90;;;;;;5029330;28;20049;-66
2023/09/03 05:27:20;;;;;;;0.00;0.00;;;13.30;99.90;;;;;;5029880;28;20431;-66
2023/09/03 05:29:47;;;;;;;0.10;0.10;;;13.20;99.90;;;;;;5032406;28;20041;-66
2023/09/03 05:32:13;;;;;;;0.30;0.30;;;13.20;99.90;;;;;;5026584;28;20108;-66
2023/09/03 05:34:39;;;;;;;0.50;0.50;;;13.10;99.90;;;;;;5034861;28;20104;-66
2023/09/03 05:37:04;;;;;;;0.23;0.23;;;13.00;99.90;;;;;;5032052;28;20021;-67
2023/09/03 05:39:31;;;;;;;0.43;0.43;;;13.00;99.90;;;;;;5026033;28;20029;-66
2023/09/03 05:41:56;;;;;;;0.10;0.10;;;13.00;99.90;;;;;;5029729;28;20029;-66
2023/09/03 05:44:22;;;;;;;0.00;0.00;;;13.00;99.90;;;;;;5023660;28;20460;-66
2023/09/03 05:46:48;;;;;;;0.70;0.70;;;13.10;99.90;;;;;;5032452;28;20029;-66
2023/09/03 05:49:13;;;;;;;0.17;0.17;;;13.20;99.90;;;;;;5036424;28;20032;-66
2023/09/03 05:51:40;;;;;;;0.10;0.10;;;13.20;99.90;;;;;;5029205;28;20444;-66
2023/09/03 05:54:06;;;;;;;;;;;13.30;99.90;;;;;;5030617;28;21259;-67
2023/09/03 05:56:32;;;;;;;0.20;0.20;;;13.50;99.90;;;;;;5029957;28;19909;-66
2023/09/03 05:59:04;;;;;;;2.47;0.23;;;13.50;99.90;;;;;;5027825;28;20033;-66
2023/09/03 06:01:29;;;;;;;0.45;0.45;;;13.60;99.90;;;;;;5032300;28;20067;-66
2023/09/03 06:03:55;;;;;;;0.10;0.10;;;13.70;99.90;;;;;;5025575;28;20033;-66
2023/09/03 06:06:21;;;;;;;0.87;0.87;;;13.80;99.90;;;;;;5031896;28;20079;-66
2023/09/03 06:08:47;;;;;;;0.13;0.13;;;13.90;99.90;;;;;;5026749;28;20032;-66
2023/09/03 06:11:12;;;;;;;0.10;0.10;;;13.90;99.90;;;;;;5034127;28;20033;-67
2023/09/03 06:13:38;;;;;;;1.30;0.47;;;13.80;99.90;;;;;;5033059;28;20388;-66
2023/09/03 06:16:04;;;;;;;1.17;0.33;;;13.90;99.90;;;;;;5029593;28;20021;-67
2023/09/03 06:18:29;;;;;;;0.17;0.17;;;13.90;99.90;;;;;;5027139;28;20127;-67
2023/09/03 06:20:55;;;;;;;0.57;0.57;;;13.80;99.90;;;;;;5025485;28;20033;-67
2023/09/03 06:23:21;;;;;;;0.00;0.00;;;13.80;99.90;;;;;;5024178;28;20034;-67
2023/09/03 06:25:50;;;;;;;0.20;0.20;;;13.80;99.90;;;;;;5033381;28;20132;-66
2023/09/03 06:28:15;;;;;;;0.20;0.20;;;13.80;99.90;;;;;;5029291;28;20076;-66
2023/09/03 06:30:42;;;;;;;0.57;0.40;;;13.90;99.90;;;;;;5025191;28;20053;-67
2023/09/03 06:33:09;;;;;;;0.95;0.43;;;13.90;99.90;;;;;;5023887;28;20026;-66
2023/09/03 06:35:35;;;;;;;1.08;0.55;;;14.00;99.90;;;;;;5028289;28;20033;-67
2023/09/03 06:38:01;;;;;;;0.50;0.50;;;14.20;99.90;;;;;;5018991;28;20301;-67
2023/09/03 06:40:27;;;;;;;0.67;0.50;;;14.40;99.90;;;;;;5029173;28;20029;-67
2023/09/03 06:42:52;;;;;;;0.90;0.73;;;14.50;99.90;;;;;;5026221;28;20025;-67
2023/09/03 06:45:18;;;;;;;0.57;0.57;;;14.50;99.90;;;;;;5038242;28;20332;-67
2023/09/03 06:47:45;;;;;;;0.17;0.17;;;14.50;99.90;;;;;;5025730;28;20034;-66
2023/09/03 06:50:14;;;;;;;1.27;0.68;;;14.60;99.90;;;;;;5029448;28;20037;-67
2023/09/03 06:52:39;;;;;;;0.32;0.32;;;14.60;99.90;;;;;;5025575;28;20036;-67
2023/09/03 06:55:06;;;;;;;0.27;0.27;;;14.70;99.90;;;;;;5033282;28;20029;-67
2023/09/03 06:57:32;;;;;;;1.30;0.70;;;14.80;99.90;;;;;;5022048;28;20026;-67
2023/09/03 06:59:58;;;;;;;0.63;0.63;;;14.90;99.90;;;;;;5027496;28;20410;-66
2023/09/03 07:02:25;;;;;;;3.67;0.97;;;15.00;99.90;;;;;;5033150;28;20044;-67
2023/09/03 07:04:50;;;;;;;1.33;0.82;;;15.10;99.90;;;;;;5035566;28;20029;-67
2023/09/03 07:07:16;;;;;;;0.50;0.47;;;15.20;99.90;;;;;;5031736;28;20367;-67
2023/09/03 07:09:42;;;;;;;0.70;0.70;;;15.40;99.90;;;;;;5026220;28;20037;-67
2023/09/03 07:12:07;;;;;;;0.43;0.30;;;15.50;99.90;;;;;;5040667;28;20022;-67
2023/09/03 07:14:34;;;;;;;3.73;1.33;;;15.60;99.90;;;;;;5033018;28;20041;-67
2023/09/03 07:17:01;;;;;;;0.75;0.65;;;15.60;99.90;;;;;;5036630;28;20426;-67
2023/09/03 07:19:30;;;;;;;3.05;1.20;;;15.60;99.90;;;;;;5027151;28;20025;-67
2023/09/03 07:21:56;;;;;;;0.45;0.45;;;15.70;99.90;;;;;;5043194;28;20033;-67
2023/09/03 07:24:22;;;;;;;0.20;0.20;;;15.70;99.90;;;;;;5039540;28;20148;-67
2023/09/03 07:26:47;;;;;;;0.63;0.63;;;15.70;99.90;;;;;;5037460;28;20132;-75
2023/09/03 07:29:14;;;;;;;5.07;1.33;;;15.80;99.90;;;;;;5035779;28;20037;-67
2023/09/03 07:31:46;;;;;;;0.88;0.88;;;16.00;99.90;;;;;;5040263;28;20038;-67
2023/09/03 07:34:12;;;;;;;0.90;0.90;;;16.20;99.90;;;;;;5031258;28;20420;-76
2023/09/03 07:36:38;;;;;;;11.25;1.33;;;16.20;99.90;;;;;;5034899;28;20037;-67
2023/09/03 07:39:05;;;;;;;0.83;0.83;;;16.30;99.90;;;;;;5031865;28;20030;-67
2023/09/03 07:41:34;;;;;;;1.60;1.20;;;16.30;99.90;;;;;;5031314;28;20025;-67
2023/09/03 07:43:59;;;;;;;0.40;0.40;;;16.40;99.90;;;;;;5035108;28;20524;-68
2023/09/03 07:46:28;;;;;;;2.20;1.00;;;16.50;99.90;;;;;;5035150;28;20029;-67
2023/09/03 07:48:54;;;;;;;0.47;0.47;;;16.60;99.90;;;;;;5034103;28;20316;-68
2023/09/03 07:51:21;;;;;;;1.87;1.03;;;16.60;99.90;;;;;;5034968;28;20032;-67
2023/09/03 07:53:47;;;;;;;0.80;0.73;;;16.80;99.90;;;;;;5035908;28;20021;-68
2023/09/03 07:56:17;;;;;;;0.95;0.70;;;16.90;99.90;;;;;;5034522;28;20036;-67
2023/09/03 07:58:43;;;;;;;4.63;1.20;;;17.00;99.90;;;;;;5037838;28;20038;-75
2023/09/03 08:01:12;;;;;;;0.38;0.38;;;17.20;99.90;;;;;;5041448;28;20488;-67
2023/09/03 08:03:39;;;;;;;0.60;0.60;;;17.40;99.90;;;;;;5038453;28;20417;-68
2023/09/03 08:06:06;;;;;;;2.45;0.90;;;17.50;99.90;;;;;;5040326;28;20033;-68
2023/09/03 08:08:31;;;;;;;0.52;0.52;;;17.70;99.90;;;;;;5033099;28;20034;-69
2023/09/03 08:10:58;;;;;;;0.90;0.90;;;17.80;99.90;;;;;;5033249;28;20026;-68
2023/09/03 08:13:24;;;;;;;0.70;0.63;;;17.90;99.90;;;;;;5040717;28;20022;-75
2023/09/03 08:15:50;;;;;;;0.73;0.73;;;18.20;99.90;;;;;;5030462;28;20079;-68
2023/09/03 08:18:16;;;;;;;5.38;0.70;;;18.30;99.90;;;;;;5028751;28;20037;-68
2023/09/03 08:20:42;;;;;;;1.23;1.13;;;18.50;99.90;;;;;;5030472;28;20047;-68
2023/09/03 08:23:11;;;;;;;0.30;0.30;;;18.60;99.90;;;;;;5038331;28;20105;-69
2023/09/03 08:25:37;;;;;;;1.20;0.50;;;18.70;99.90;;;;;;5036009;28;20049;-68
2023/09/03 08:28:03;;;;;;;0.93;0.57;;;18.80;99.90;;;;;;5031372;28;20551;-68
2023/09/03 08:30:29;;;;;;;3.50;0.82;;;18.90;99.90;;;;;;5031459;28;20034;-68
2023/09/03 08:32:54;;;;;;;1.60;0.67;;;19.00;99.90;;;;;;5037466;28;20324;-72
2023/09/03 08:35:20;;;;;;;0.40;0.40;;;19.10;99.90;;;;;;5037480;28;20299;-69
2023/09/03 08:37:46;;;;;;;0.20;0.20;;;19.20;99.90;;;;;;5038232;28;20025;-68
2023/09/03 08:40:12;;;;;;;0.37;0.37;;;19.30;99.90;;;;;;5031557;28;20372;-69
2023/09/03 08:42:40;;;;;;;0.37;0.37;;;19.50;99.90;;;;;;5043275;28;20025;-76
2023/09/03 08:45:11;;;;;;;3.33;0.77;;;19.60;99.90;;;;;;5042488;28;20113;-68
2023/09/03 08:47:40;;;;;;;0.52;0.52;;;19.60;99.90;;;;;;5035811;28;20037;-68
2023/09/03 08:50:10;;;;;;;0.30;0.30;;;19.80;99.90;;;;;;5030077;28;20026;-69
2023/09/03 08:52:37;;;;;;;0.55;0.55;;;20.00;99.90;;;;;;5035551;28;20029;-68
2023/09/03 08:55:05;;;;;;;0.43;0.43;;;20.10;99.90;;;;;;5024661;28;20025;-69
2023/09/03 08:57:34;;;;;;;0.43;0.43;;;20.30;99.90;;;;;;5028748;28;20029;-74
2023/09/03 09:00:00;;;;;;;0.20;0.20;;;20.40;99.90;;;;;;5026978;28;20112;-68
2023/09/03 09:02:28;;;;;;;0.28;0.28;;;20.60;99.90;;;;;;5032885;28;20152;-68
2023/09/03 09:04:54;;;;;;;0.52;0.32;;;20.70;99.90;;;;;;5031822;28;20332;-68
2023/09/03 09:07:21;;;;;;;0.52;0.47;;;20.70;99.90;;;;;;5028461;28;20034;-68
2023/09/03 09:09:50;;;;;;;0.00;0.00;;;20.80;99.90;;;;;;5027162;28;20030;-68
2023/09/03 09:12:31;;;;;;;7.20;0.68;;;20.90;99.90;;;;;;5029526;28;20408;-69
2023/09/03 09:15:03;;;;;;;0.40;0.10;;;21.00;99.90;;;;;;5031172;28;20030;-75
2023/09/03 09:17:38;;;;;;;1.13;0.57;;;21.10;99.90;;;;;;5026634;28;20029;-75
2023/09/03 09:20:08;;;;;;;0.75;0.75;;;21.10;99.90;;;;;;5026716;28;20025;-75
2023/09/03 09:22:45;;;;;;;1.20;0.40;;;21.20;99.90;;;;;;5034586;28;20100;-69
2023/09/03 09:25:25;;;;;;;0.20;0.20;;;21.20;99.90;;;;;;5029865;28;20053;-69
2023/09/03 09:27:55;;;;;;;0.20;0.20;;;21.30;99.90;;;;;;5026653;28;20420;-69
2023/09/03 09:30:25;;;;;;;0.10;0.10;;;21.40;99.90;;;;;;5022337;28;20046;-69
2023/09/03 09:33:05;;;;;;;0.95;0.32;;;21.50;99.90;;;;;;5025170;28;20055;-69
2023/09/03 09:35:31;;;;;;;0.10;0.10;;;21.40;99.90;;;;;;5032463;28;20037;-75
2023/09/03 09:38:05;;;;;;;0.55;0.28;;;21.50;99.90;;;;;;5032265;28;20068;-76
2023/09/03 09:40:30;;;;;;;2.38;0.35;;;21.50;99.90;;;;;;5032121;28;20117;-74
2023/09/03 09:42:59;;;;;;;0.10;0.10;;;21.40;99.90;;;;;;5034395;28;20438;-68
2023/09/03 09:45:25;;;;;;;0.00;0.00;;;21.50;99.90;;;;;;5034270;28;20748;-68
2023/09/03 09:48:06;;;;;;;0.10;0.10;;;21.60;99.90;;;;;;5031463;28;20033;-69
2023/09/03 09:50:33;;;;;;;0.20;0.20;;;21.50;99.90;;;;;;5028757;28;20112;-69
2023/09/03 09:52:59;;;;;;;0.00;0.00;;;21.50;99.90;;;;;;5036423;28;20368;-69
2023/09/03 09:55:27;;;;;;;0.10;0.10;;;21.60;99.90;;;;;;5028730;28;20036;-68
2023/09/03 09:57:53;;;;;;;0.50;0.50;;;21.60;99.90;;;;;;5036658;28;20034;-74
2023/09/03 10:00:36;;;;;;;0.53;0.20;;;21.60;99.90;;;;;;5027022;28;20109;-74
2023/09/03 10:03:02;;;;;;;0.00;0.00;;;21.60;99.90;;;;;;5033343;28;20401;-75
2023/09/03 10:05:28;;;;;;;0.13;0.13;;;21.50;99.90;;;;;;5034728;28;20054;-75
2023/09/03 10:07:54;;;;;;;0.00;0.00;;;21.50;99.90;;;;;;5037492;28;20029;-76
2023/09/03 10:10:21;;;;;;;0.10;0.10;;;21.60;99.90;;;;;;5038998;28;20024;-69
2023/09/03 10:12:46;;;;;;;;;;;21.60;99.90;;;;;;5037014;28;20102;-69
2023/09/03 10:15:13;;;;;;;0.03;0.03;;;21.60;99.90;;;;;;5029657;28;19944;-69
2023/09/03 10:17:41;;;;;;;0.25;0.25;;;21.60;99.90;;;;;;5026093;28;20052;-76
2023/09/03 10:20:10;;;;;;;0.55;0.47;;;21.60;99.90;;;;;;5033404;28;20092;-69
2023/09/03 10:22:41;;;;;;;0.55;0.55;;;21.60;99.90;;;;;;5032329;28;20026;-68
2023/09/03 10:25:12;;;;;;;0.22;0.22;;;21.60;99.90;;;;;;5033148;28;20033;-76
2023/09/03 10:27:43;;;;;;;0.20;0.20;;;21.60;99.90;;;;;;5035811;28;20052;-68
2023/09/03 10:30:13;;;;;;;0.20;0.20;;;21.70;99.90;;;;;;5036036;28;20547;-68
2023/09/03 10:32:42;;;;;;;0.28;0.20;;;21.70;99.90;;;;;;5031329;28;20116;-69
2023/09/03 10:35:09;;;;;;;0.65;0.20;;;21.70;99.90;;;;;;5026283;28;20404;-68
2023/09/03 10:37:37;;;;;;;0.00;0.00;;;21.70;99.90;;;;;;5032599;28;20025;-68
2023/09/03 10:40:22;;;;;;;0.20;0.20;;;21.80;99.90;;;;;;5030903;28;20124;-69
2023/09/03 10:42:52;;;;;;;0.10;0.10;;;21.70;99.90;;;;;;5033126;28;20093;-69
2023/09/03 10:45:18;;;;;;;0.00;0.00;;;21.80;99.90;;;;;;5033713;28;20029;-68
2023/09/03 10:48:03;;;;;;;0.22;0.22;;;21.80;99.90;;;;;;5032098;28;20116;-68
2023/09/03 10:50:48;;;;;;;0.30;0.15;;;21.70;99.90;;;;;;5034858;28;20037;-68
2023/09/03 10:53:39;;;;;;;0.40;0.40;;;21.70;99.90;;;;;;5045165;28;20026;-68
2023/09/03 10:56:16;;;;;;;1.85;0.63;;;21.70;99.90;;;;;;5027043;28;20076;-69
2023/09/03 10:58:58;;;;;;;0.28;0.28;;;21.80;99.90;;;;;;5041464;28;20057;-68
2023/09/03 11:01:26;;;;;;;0.10;0.10;;;21.80;99.90;;;;;;5036690;28;20021;-69
2023/09/03 11:03:53;;;;;;;0.05;0.05;;;21.80;99.90;;;;;;5044370;28;20358;-68
2023/09/03 11:06:23;;;;;;;0.28;0.20;;;21.90;99.90;;;;;;5035660;28;20025;-68
2023/09/03 11:09:12;;;;;;;0.05;0.05;;;21.90;99.90;;;;;;5035489;28;20033;-77
2023/09/03 11:11:38;;;;;;;0.10;0.10;;;21.80;99.90;;;;;;5033904;28;20494;-68
2023/09/03 11:14:10;;;;;;;0.00;0.00;;;21.80;99.90;;;;;;5035797;28;20032;-74
2023/09/03 11:16:39;;;;;;;0.00;0.00;;;21.70;99.90;;;;;;5033015;28;20034;-68
2023/09/03 11:19:09;;;;;;;0.10;0.10;;;21.80;99.90;;;;;;5027057;28;20040;-67
2023/09/03 11:21:36;;;;;;;0.65;0.40;;;21.80;99.90;;;;;;5034511;28;20362;-68
2023/09/03 11:24:02;;;;;;;0.22;0.22;;;21.80;99.90;;;;;;5037621;28;20083;-68
2023/09/03 11:26:29;;;;;;;0.13;0.13;;;21.80;99.90;;;;;;5036228;28;20049;-68
2023/09/03 11:28:55;;;;;;;0.20;0.20;;;21.80;99.90;;;;;;5035882;28;20040;-68
2023/09/03 11:31:25;;;;;;;0.47;0.47;;;21.70;99.90;;;;;;5035293;28;20472;-68
2023/09/03 11:33:51;;;;;;;0.85;0.45;;;21.60;99.90;;;;;;5049399;28;20033;-68
2023/09/03 11:36:26;;;;;;;0.10;0.10;;;21.60;99.90;;;;;;5033320;28;20084;-68
2023/09/03 11:38:54;;;;;;;6.38;0.32;;;21.50;99.90;;;;;;5033702;28;20124;-68
2023/09/03 11:41:20;;;;;;;0.90;0.30;;;21.50;99.90;;;;;;5029954;28;20417;-68
2023/09/03 11:43:47;;;;;;;0.10;0.10;;;21.50;99.90;;;;;;5030890;28;20048;-68
2023/09/03 11:46:14;;;;;;;0.00;0.00;;;21.40;99.90;;;;;;5028843;28;20029;-69
2023/09/03 11:48:41;;;;;;;0.10;0.10;;;21.50;99.90;;;;;;5030932;28;20025;-68
2023/09/03 11:51:08;;;;;;;0.00;0.00;;;21.40;99.90;;;;;;5033180;28;20104;-68
2023/09/03 11:53:43;;;;;;;0.00;0.00;;;21.30;99.90;;;;;;5029051;28;20052;-75
2023/09/03 11:56:15;;;;;;;0.00;0.00;;;21.30;99.90;;;;;;5030180;28;20105;-76
2023/09/03 11:58:42;;;;;;;0.10;0.10;;;21.20;99.90;;;;;;5033616;28;20025;-74
2023/09/03 12:01:08;;;;;;;0.20;0.10;;;21.20;99.90;;;;;;5039692;28;20088;-68
2023/09/03 12:03:35;;;;;;;0.00;0.00;;;21.20;99.90;;;;;;5036018;28;20423;-68
2023/09/03 12:06:03;;;;;;;0.20;0.20;;;21.20;99.90;;;;;;5037109;28;20022;-68
2023/09/03 12:08:32;;;;;;;0.22;0.22;;;21.20;99.90;;;;;;5036940;28;20029;-75
2023/09/03 12:10:58;;;;;;;0.20;0.20;;;21.30;99.90;;;;;;5035035;28;20036;-68
2023/09/03 12:13:34;;;;;;;0.35;0.35;;;21.30;99.90;;;;;;5047768;28;20017;-68
2023/09/03 12:16:16;;;;;;;0.43;0.43;;;21.40;99.90;;;;;;5038451;28;20035;-68
2023/09/03 12:18:57;;;;;;;0.00;0.00;;;21.40;99.90;;;;;;5038142;28;20439;-68
2023/09/03 12:21:34;;;;;;;1.88;0.90;;;21.40;99.90;;;;;;5030766;28;20027;-68
2023/09/03 12:24:03;;;;;;;0.88;0.43;;;21.40;99.90;;;;;;5051046;28;20104;-68
2023/09/03 12:26:30;;;;;;;0.10;0.10;;;21.30;99.90;;;;;;5042966;28;20126;-68
2023/09/03 12:28:58;;;;;;;;;;;21.30;99.90;;;;;;5041071;28;20029;-68
2023/09/03 12:31:42;;;;;;;0.00;0.00;;;21.30;99.90;;;;;;5043808;28;19905;-69
2023/09/03 12:34:08;;;;;;;0.00;0.00;;;21.40;99.90;;;;;;5048985;28;20017;-68
2023/09/03 12:36:56;;;;;;;0.07;0.07;;;21.50;99.90;;;;;;5044772;28;20087;-68
2023/09/03 12:39:35;;;;;;;0.57;0.55;;;21.50;99.90;;;;;;5037287;28;20026;-68
2023/09/03 12:42:03;;;;;;;0.20;0.13;;;21.50;99.90;;;;;;5047308;28;20455;-68
2023/09/03 12:44:28;;;;;;;0.55;0.10;;;21.50;99.90;;;;;;5049640;28;20026;-68
2023/09/03 12:46:55;;;;;;;0.00;0.00;;;21.60;99.90;;;;;;5044185;28;20163;-75
2023/09/03 12:49:21;;;;;;;;;;;21.60;99.90;;;;;;5039962;28;20041;-68
2023/09/03 12:51:47;;;;;;;0.10;0.10;;;21.60;99.90;;;;;;5043684;28;19909;-68
2023/09/03 12:54:14;;;;;;;0.10;0.10;;;21.60;99.90;;;;;;5037503;28;20034;-68